Time;durP1;ratioP1;P1;durP2;ratioP2;P2;SDS_P1;SDS_P2;PMS_P1;PMS_P2;Temp;Humidity;BMP_temperature;BMP_pressure;BME280_temperature;BME280_humidity;BME280_pressure;Samples;Min_cycle;Max_cycle;Signal;HPM_P1;HPM_P2
2022/09/12 00:00:46;;;;;;;9.90;9.10;;;16.90;99.90;;;;;;10381818;28;20202;-78
2022/09/12 00:05:48;;;;;;;8.83;8.20;;;16.90;99.90;;;;;;10415055;28;20206;-78
2022/09/12 00:10:50;;;;;;;9.10;8.30;;;16.80;99.90;;;;;;10384154;28;20225;-78
2022/09/12 00:15:53;;;;;;;10.30;9.10;;;16.80;99.90;;;;;;10416659;28;20194;-79
2022/09/12 00:20:55;;;;;;;8.80;8.20;;;16.80;99.90;;;;;;10378706;28;20224;-79
2022/09/12 00:25:58;;;;;;;9.03;8.43;;;16.80;99.90;;;;;;10414352;28;20715;-79
2022/09/12 00:31:04;;;;;;;9.30;8.50;;;16.80;99.90;;;;;;10379678;28;20179;-79
2022/09/12 00:36:09;;;;;;;10.17;9.47;;;16.70;99.90;;;;;;10416792;28;20221;-79
2022/09/12 00:41:15;;;;;;;9.37;8.77;;;16.70;99.90;;;;;;10378530;28;20293;-78
2022/09/12 00:46:28;;;;;;;10.43;9.67;;;16.70;99.90;;;;;;10414112;28;20206;-78
2022/09/12 00:51:31;;;;;;;9.07;8.37;;;16.60;99.90;;;;;;10378837;28;20274;-79
2022/09/12 00:56:34;;;;;;;9.10;8.40;;;16.60;99.90;;;;;;10412074;28;20306;-78
2022/09/12 01:01:40;;;;;;;11.07;10.20;;;16.60;99.90;;;;;;10376850;28;20218;-78
2022/09/12 01:06:43;;;;;;;9.70;8.90;;;16.60;99.90;;;;;;10412431;28;20248;-79
2022/09/12 01:11:47;;;;;;;10.60;9.70;;;16.60;99.90;;;;;;10375997;28;20186;-78
2022/09/12 01:16:51;;;;;;;9.10;8.50;;;16.60;99.90;;;;;;10412010;28;20230;-78
2022/09/12 01:22:11;;;;;;;10.23;9.43;;;16.50;99.90;;;;;;10376135;28;20230;-78
2022/09/12 01:27:37;;;;;;;9.40;8.80;;;16.50;99.90;;;;;;10410723;28;20253;-78
2022/09/12 01:32:52;;;;;;;10.33;9.43;;;16.40;99.90;;;;;;10374028;28;20194;-79
2022/09/12 01:38:04;;;;;;;10.80;10.07;;;16.40;99.90;;;;;;10383174;28;20348;-78
2022/09/12 01:43:18;;;;;;;9.60;8.90;;;16.40;99.90;;;;;;10413736;28;20300;-78
2022/09/12 01:48:28;;;;;;;9.93;9.30;;;16.40;99.90;;;;;;10403743;28;20210;-79
2022/09/12 01:53:34;;;;;;;9.63;8.93;;;16.30;99.90;;;;;;10383616;28;20186;-79
2022/09/12 01:58:43;;;;;;;10.57;9.80;;;16.30;99.90;;;;;;10403434;28;20237;-79
2022/09/12 02:03:51;;;;;;;11.20;10.33;;;16.30;99.90;;;;;;10384421;28;20218;-79
2022/09/12 02:08:57;;;;;;;11.53;10.57;;;16.20;99.90;;;;;;10405342;28;20308;-79
2022/09/12 02:14:03;;;;;;;11.20;10.30;;;16.20;99.90;;;;;;10383961;28;20186;-79
2022/09/12 02:19:11;;;;;;;12.90;12.00;;;16.20;99.90;;;;;;10403863;28;20214;-79
2022/09/12 02:24:15;;;;;;;12.97;11.70;;;16.20;99.90;;;;;;10385358;28;20222;-78
2022/09/12 02:29:17;;;;;;;11.57;10.47;;;16.20;99.90;;;;;;10400473;28;20219;-79
2022/09/12 02:34:37;;;;;;;12.43;11.43;;;16.10;99.90;;;;;;10387460;28;20280;-79
2022/09/12 02:39:40;;;;;;;11.63;10.83;;;16.20;99.90;;;;;;10398146;28;20213;-78
2022/09/12 02:44:42;;;;;;;13.20;12.20;;;16.10;99.90;;;;;;10383911;28;20218;-79
2022/09/12 02:49:46;;;;;;;12.50;11.50;;;16.10;99.90;;;;;;10399583;28;20225;-79
2022/09/12 02:54:49;;;;;;;12.93;11.83;;;16.00;99.90;;;;;;10370179;28;20211;-79
2022/09/12 02:59:53;;;;;;;13.57;12.20;;;16.10;99.90;;;;;;10384519;28;20772;-79
2022/09/12 03:05:26;;;;;;;12.83;11.73;;;16.10;99.90;;;;;;10382026;28;20218;-78
2022/09/12 03:10:37;;;;;;;12.50;11.50;;;16.00;99.90;;;;;;10389629;28;20667;-78
2022/09/12 03:15:46;;;;;;;13.27;12.27;;;15.90;99.90;;;;;;10413790;28;20194;-78
2022/09/12 03:21:00;;;;;;;12.77;11.87;;;15.90;99.90;;;;;;10396430;28;20697;-78
2022/09/12 03:26:06;;;;;;;12.07;11.07;;;15.90;99.90;;;;;;10392943;28;20272;-78
2022/09/12 03:31:14;;;;;;;12.07;11.23;;;15.90;99.90;;;;;;10397118;28;20202;-78
2022/09/12 03:36:22;;;;;;;12.80;11.90;;;15.80;99.90;;;;;;10402740;28;20218;-79
2022/09/12 03:41:24;;;;;;;12.60;11.70;;;15.80;99.90;;;;;;10402474;28;20289;-79
2022/09/12 03:46:26;;;;;;;12.30;11.40;;;15.80;99.90;;;;;;10400826;28;20210;-79
2022/09/12 03:51:30;;;;;;;12.30;11.50;;;15.70;99.90;;;;;;10405085;28;20186;-79
2022/09/12 03:56:32;;;;;;;14.77;13.67;;;15.70;99.90;;;;;;10398635;28;20209;-79
2022/09/12 04:01:34;;;;;;;12.70;11.77;;;15.70;99.90;;;;;;10401126;28;20238;-79
2022/09/12 04:06:38;;;;;;;12.37;11.40;;;15.70;99.90;;;;;;10397293;28;20678;-79
2022/09/12 04:11:40;;;;;;;13.20;12.30;;;15.70;99.90;;;;;;10402179;28;20202;-79
2022/09/12 04:16:42;;;;;;;13.17;12.17;;;15.60;99.90;;;;;;10398314;28;20224;-79
2022/09/12 04:21:45;;;;;;;13.77;12.77;;;15.60;99.90;;;;;;10405292;28;20297;-79
2022/09/12 04:26:47;;;;;;;13.60;12.50;;;15.50;99.90;;;;;;10379578;28;20232;-79
2022/09/12 04:31:49;;;;;;;11.20;10.50;;;15.50;99.90;;;;;;10403776;28;20301;-79
2022/09/12 04:36:53;;;;;;;14.30;13.30;;;15.50;99.90;;;;;;10393357;28;20304;-78
2022/09/12 04:41:55;;;;;;;13.80;12.80;;;15.40;99.90;;;;;;10403316;28;20379;-79
2022/09/12 04:46:57;;;;;;;14.07;13.10;;;15.40;99.90;;;;;;10391810;28;20241;-78
2022/09/12 04:52:00;;;;;;;11.90;11.00;;;15.40;99.90;;;;;;10403350;28;20277;-79
2022/09/12 04:57:03;;;;;;;11.63;10.83;;;15.40;99.90;;;;;;10391929;28;20296;-79
2022/09/12 05:02:09;;;;;;;11.17;10.37;;;15.40;99.90;;;;;;10402335;28;20710;-79
2022/09/12 05:07:12;;;;;;;12.10;11.30;;;15.40;99.90;;;;;;10390468;28;20344;-79
2022/09/12 05:12:14;;;;;;;11.90;10.90;;;15.50;99.90;;;;;;10402337;28;20195;-79
2022/09/12 05:17:16;;;;;;;13.57;12.57;;;15.50;99.90;;;;;;10388969;28;20218;-79
2022/09/12 05:22:19;;;;;;;13.30;12.40;;;15.50;99.90;;;;;;10403944;28;20210;-79
2022/09/12 05:27:21;;;;;;;14.00;13.10;;;15.50;99.90;;;;;;10389376;28;20213;-78
2022/09/12 05:32:23;;;;;;;11.93;11.13;;;15.50;99.90;;;;;;10403182;28;20608;-79
2022/09/12 05:37:27;;;;;;;13.40;12.53;;;15.50;99.90;;;;;;10387920;28;20258;-79
2022/09/12 05:42:30;;;;;;;13.17;12.27;;;15.50;99.90;;;;;;10406392;28;20309;-79
2022/09/12 05:47:32;;;;;;;13.93;12.87;;;15.50;99.90;;;;;;10389399;28;20252;-79
2022/09/12 05:52:35;;;;;;;14.30;13.20;;;15.60;99.90;;;;;;10406035;28;20651;-79
2022/09/12 05:57:38;;;;;;;14.23;13.07;;;15.60;99.90;;;;;;10387014;28;20607;-79
2022/09/12 06:02:40;;;;;;;17.10;15.20;;;15.70;99.90;;;;;;10406919;28;20245;-79
2022/09/12 06:07:45;;;;;;;16.57;15.27;;;15.80;99.90;;;;;;10386308;28;20218;-79
2022/09/12 06:12:48;;;;;;;16.57;15.37;;;15.80;99.90;;;;;;10406936;28;20195;-79
2022/09/12 06:17:50;;;;;;;15.80;14.60;;;15.90;99.90;;;;;;10386969;28;20226;-79
2022/09/12 06:22:54;;;;;;;14.90;13.70;;;15.90;99.90;;;;;;10408490;28;20215;-79
2022/09/12 06:27:56;;;;;;;15.37;14.27;;;15.90;99.90;;;;;;10369622;28;20576;-79
2022/09/12 06:32:58;;;;;;;16.30;14.77;;;15.90;99.90;;;;;;10408869;28;20289;-79
2022/09/12 06:38:02;;;;;;;16.00;14.80;;;16.00;99.90;;;;;;10386883;28;20209;-79
2022/09/12 06:43:04;;;;;;;16.13;14.77;;;16.00;99.90;;;;;;10408735;28;20227;-78
2022/09/12 06:48:09;;;;;;;18.00;16.40;;;16.00;99.90;;;;;;10383594;28;20237;-78
2022/09/12 06:53:12;;;;;;;18.13;16.57;;;16.00;99.90;;;;;;10407818;28;20304;-79
2022/09/12 06:58:14;;;;;;;16.70;15.30;;;16.00;99.90;;;;;;10381123;28;20767;-78
2022/09/12 07:03:17;;;;;;;18.17;16.67;;;16.10;99.90;;;;;;10405931;28;20369;-78
2022/09/12 07:08:44;;;;;;;17.20;15.80;;;16.20;99.90;;;;;;10383071;28;20229;-78
2022/09/12 07:13:48;;;;;;;18.17;16.47;;;16.30;99.90;;;;;;10390194;28;20194;-79
2022/09/12 07:18:51;;;;;;;18.13;16.63;;;16.40;99.90;;;;;;10392666;28;20209;-79
2022/09/12 07:23:56;;;;;;;17.77;16.17;;;16.50;99.90;;;;;;10412020;28;20233;-78
2022/09/12 07:28:59;;;;;;;17.70;16.10;;;16.50;99.90;;;;;;10391102;28;20218;-78
2022/09/12 07:34:04;;;;;;;16.10;14.77;;;16.60;99.90;;;;;;10413799;28;20682;-78
2022/09/12 07:39:08;;;;;;;15.83;14.60;;;16.70;99.90;;;;;;10394818;28;20532;-79
2022/09/12 07:44:10;;;;;;;14.77;13.63;;;16.90;99.90;;;;;;10415479;28;20684;-79
2022/09/12 07:49:12;;;;;;;14.33;13.23;;;16.90;99.90;;;;;;10392949;28;20249;-79
2022/09/12 07:54:16;;;;;;;13.00;12.00;;;17.10;99.90;;;;;;10416932;28;20579;-79
2022/09/12 07:59:19;;;;;;;12.70;11.70;;;17.20;99.90;;;;;;10392305;28;20246;-79
2022/09/12 08:04:21;;;;;;;14.77;13.57;;;17.40;99.90;;;;;;10416486;28;20271;-78
2022/09/12 08:09:24;;;;;;;12.07;10.60;;;17.50;99.90;;;;;;10391313;28;20226;-79
2022/09/12 08:14:27;;;;;;;13.10;11.97;;;17.60;99.90;;;;;;10416485;28;20695;-78
2022/09/12 08:19:30;;;;;;;14.33;13.00;;;17.80;99.90;;;;;;10387372;28;20217;-79
2022/09/12 08:24:34;;;;;;;13.97;12.87;;;17.90;99.90;;;;;;10415771;28;20211;-78
2022/09/12 08:29:36;;;;;;;13.60;12.50;;;18.00;99.90;;;;;;10386366;28;20637;-78
2022/09/12 08:34:38;;;;;;;12.87;11.40;;;18.10;99.90;;;;;;10414528;28;20205;-79
2022/09/12 08:39:42;;;;;;;9.93;9.23;;;18.20;99.90;;;;;;10388329;28;20682;-79
2022/09/12 08:45:05;;;;;;;11.43;10.67;;;18.30;99.90;;;;;;10399794;28;20219;-79
2022/09/12 08:50:16;;;;;;;10.20;9.47;;;18.40;99.90;;;;;;10390391;28;20218;-79
2022/09/12 08:55:33;;;;;;;9.50;8.80;;;18.50;99.90;;;;;;10414321;28;20290;-79
2022/09/12 09:00:41;;;;;;;10.03;9.43;;;18.60;99.90;;;;;;10392730;28;20241;-79
2022/09/12 09:05:51;;;;;;;10.63;8.83;;;18.80;99.90;;;;;;10411194;28;20298;-78
2022/09/12 09:11:02;;;;;;;9.10;8.60;;;18.80;99.90;;;;;;10444207;23;20245;-82
2022/09/12 09:16:12;;;;;;;9.50;8.63;;;18.90;99.90;;;;;;10413019;28;20671;-80
2022/09/12 09:21:21;;;;;;;9.30;8.70;;;19.10;99.90;;;;;;10355737;28;20203;-80
2022/09/12 09:26:31;;;;;;;8.67;8.07;;;19.20;99.90;;;;;;10367988;28;20316;-80
2022/09/12 09:31:37;;;;;;;9.40;8.80;;;19.30;99.90;;;;;;10356268;28;20201;-80
2022/09/12 09:36:48;;;;;;;7.57;7.17;;;19.50;99.90;;;;;;10367665;28;20250;-80
2022/09/12 09:42:03;;;;;;;7.80;7.20;;;19.60;99.90;;;;;;10357321;28;20209;-80
2022/09/12 09:47:05;;;;;;;7.20;6.80;;;19.80;99.90;;;;;;10366522;28;20214;-80
2022/09/12 09:52:08;;;;;;;9.50;8.80;;;20.10;99.90;;;;;;10357035;28;20195;-80
2022/09/12 09:57:40;;;;;;;8.50;8.00;;;20.50;99.40;;;;;;10367253;28;20222;-80
2022/09/12 10:02:42;;;;;;;7.20;6.70;;;20.90;99.00;;;;;;10361969;28;20207;-80
2022/09/12 10:07:50;;;;;;;5.90;5.60;;;21.10;96.30;;;;;;10362156;28;20250;-80
2022/09/12 10:13:07;;;;;;;5.97;5.63;;;21.10;97.00;;;;;;10361721;28;20540;-82
2022/09/12 10:18:11;;;;;;;5.40;5.10;;;21.10;96.10;;;;;;10360070;28;20218;-81
2022/09/12 10:23:29;;;;;;;6.73;6.27;;;21.10;93.60;;;;;;10360960;28;20242;-80
2022/09/12 10:28:38;;;;;;;5.50;5.30;;;21.10;95.40;;;;;;10356468;28;20246;-81
2022/09/12 10:33:42;;;;;;;4.50;4.30;;;21.00;94.40;;;;;;10346178;28;20632;-80
2022/09/12 10:38:50;;;;;;;5.80;5.53;;;21.00;94.20;;;;;;10359432;28;20219;-80
2022/09/12 10:44:08;;;;;;;5.73;5.43;;;21.00;94.70;;;;;;10361641;28;20215;-80
2022/09/12 10:49:23;;;;;;;5.63;5.27;;;21.00;94.80;;;;;;10354111;28;20223;-80
2022/09/12 10:54:27;;;;;;;6.17;5.87;;;21.00;94.30;;;;;;10366810;28;20221;-80
2022/09/12 10:59:58;;;;;;;4.30;4.00;;;21.00;94.00;;;;;;10355572;28;20665;-80
2022/09/12 11:05:08;;;;;;;5.87;5.57;;;21.10;92.10;;;;;;10369720;28;20257;-80
2022/09/12 11:10:30;;;;;;;4.37;4.17;;;21.20;91.80;;;;;;10349574;28;20603;-79
2022/09/12 11:16:02;;;;;;;4.90;4.70;;;21.30;90.90;;;;;;10387966;28;20195;-80
2022/09/12 11:21:34;;;;;;;6.97;6.50;;;21.50;91.90;;;;;;10343164;28;20292;-80
2022/09/12 11:26:48;;;;;;;8.70;8.10;;;21.50;92.30;;;;;;10378901;28;20592;-80
2022/09/12 11:32:13;;;;;;;5.40;5.20;;;21.50;93.30;;;;;;10380214;28;20587;-81
2022/09/12 11:37:33;;;;;;;5.10;4.90;;;21.50;91.70;;;;;;10343206;28;20224;-80
2022/09/12 11:42:40;;;;;;;4.90;4.70;;;21.50;93.30;;;;;;10375350;28;20570;-80
2022/09/12 11:47:48;;;;;;;4.87;4.67;;;21.50;92.00;;;;;;10345957;28;20219;-80
2022/09/12 11:52:51;;;;;;;4.93;4.73;;;21.40;93.30;;;;;;10374944;28;20199;-80
2022/09/12 11:57:56;;;;;;;4.50;4.30;;;21.30;90.80;;;;;;10335780;28;20214;-80
2022/09/12 12:03:06;;;;;;;3.87;3.57;;;21.30;90.80;;;;;;10383089;28;20690;-80
2022/09/12 12:08:10;;;;;;;3.20;3.00;;;21.30;91.30;;;;;;10359076;28;20289;-80
2022/09/12 12:13:19;;;;;;;3.70;3.60;;;21.30;88.20;;;;;;10383557;28;20226;-81
2022/09/12 12:18:26;;;;;;;3.17;3.07;;;21.40;84.30;;;;;;10353057;28;20264;-80
2022/09/12 12:23:31;;;;;;;4.03;3.83;;;21.40;85.60;;;;;;10381296;28;20539;-80
2022/09/12 12:28:57;;;;;;;4.10;3.90;;;21.40;83.00;;;;;;10351234;28;20651;-80
2022/09/12 12:34:26;;;;;;;3.87;3.73;;;21.50;84.30;;;;;;10377355;28;20222;-80
2022/09/12 12:40:01;;;;;;;4.70;4.50;;;21.40;89.60;;;;;;10341503;28;20253;-80
2022/09/12 12:45:24;;;;;;;3.03;2.93;;;21.30;90.70;;;;;;10370122;28;20309;-80
2022/09/12 12:50:29;;;;;;;4.20;4.00;;;21.30;87.50;;;;;;10365389;28;20241;-80
2022/09/12 12:55:36;;;;;;;3.93;3.73;;;21.30;81.00;;;;;;10366898;28;20238;-80
2022/09/12 13:00:40;;;;;;;3.87;3.77;;;21.40;85.70;;;;;;10365178;28;20895;-79
2022/09/12 13:05:46;;;;;;;3.70;3.60;;;21.40;89.60;;;;;;10364836;28;20597;-80
2022/09/12 13:10:51;;;;;;;4.57;4.37;;;21.30;89.30;;;;;;10368205;28;20313;-80
2022/09/12 13:15:54;;;;;;;3.70;3.60;;;21.30;83.30;;;;;;10368564;28;20714;-81
2022/09/12 13:21:07;;;;;;;3.90;3.80;;;21.30;85.30;;;;;;10362551;28;20278;-80
2022/09/12 13:26:12;;;;;;;4.03;3.73;;;21.40;85.80;;;;;;10363595;28;20226;-80
2022/09/12 13:31:24;;;;;;;3.93;3.73;;;21.40;85.80;;;;;;10348333;28;20207;-80
2022/09/12 13:36:46;;;;;;;4.00;3.77;;;21.40;79.90;;;;;;10363619;28;20612;-81
2022/09/12 13:42:17;;;;;;;3.73;3.63;;;21.50;81.40;;;;;;10366788;28;20193;-80
2022/09/12 13:47:26;;;;;;;4.30;4.20;;;21.60;84.70;;;;;;10349760;28;20223;-82
2022/09/12 13:52:32;;;;;;;4.00;3.90;;;21.60;90.40;;;;;;10371990;28;20194;-82
2022/09/12 13:57:36;;;;;;;4.53;4.33;;;21.50;87.20;;;;;;10357982;28;20241;-80
2022/09/12 14:02:40;;;;;;;4.23;4.03;;;21.60;82.10;;;;;;10372322;28;20222;-80
2022/09/12 14:07:54;;;;;;;4.53;4.33;;;21.80;79.20;;;;;;10356080;28;20508;-80
2022/09/12 14:12:57;;;;;;;4.20;4.10;;;21.80;79.20;;;;;;10372815;28;20190;-80
2022/09/12 14:18:02;;;;;;;6.03;5.73;;;21.90;80.00;;;;;;10357312;28;20571;-81
2022/09/12 14:23:15;;;;;;;4.33;4.13;;;22.00;80.90;;;;;;10372173;28;20209;-80
2022/09/12 14:28:19;;;;;;;3.63;3.53;;;22.10;82.00;;;;;;10354450;28;20219;-80
2022/09/12 14:33:21;;;;;;;5.67;5.00;;;22.10;82.90;;;;;;10372552;28;20267;-80
2022/09/12 14:38:34;;;;;;;4.10;3.90;;;22.10;82.60;;;;;;10338893;28;20219;-80
2022/09/12 14:43:39;;;;;;;4.40;4.30;;;22.10;80.60;;;;;;10367477;28;20214;-80
2022/09/12 14:48:46;;;;;;;3.83;3.30;;;22.10;82.10;;;;;;10345098;28;20699;-80
2022/09/12 14:53:50;;;;;;;3.60;3.50;;;22.40;80.00;;;;;;10372536;28;20270;-80
2022/09/12 14:59:30;;;;;;;3.87;3.77;;;22.50;80.40;;;;;;10354050;28;20218;-80
2022/09/12 15:04:38;;;;;;;4.70;4.50;;;22.40;84.20;;;;;;10376395;28;20293;-81
2022/09/12 15:09:42;;;;;;;4.63;4.43;;;22.40;79.90;;;;;;10414972;23;20635;-78
2022/09/12 15:14:44;;;;;;;4.03;3.83;;;22.40;79.80;;;;;;10415867;28;20245;-79
2022/09/12 15:19:46;;;;;;;3.13;3.03;;;22.40;83.60;;;;;;10380558;28;20214;-79
2022/09/12 15:24:50;;;;;;;6.10;5.80;;;22.40;82.80;;;;;;10405193;28;20252;-78
2022/09/12 15:29:52;;;;;;;5.23;5.00;;;22.30;85.70;;;;;;10382658;28;20221;-79
2022/09/12 15:34:54;;;;;;;4.87;4.67;;;22.10;87.60;;;;;;10415803;28;20681;-79
2022/09/12 15:39:57;;;;;;;2.97;2.87;;;22.10;87.20;;;;;;10392270;28;20305;-79
2022/09/12 15:45:00;;;;;;;4.00;3.80;;;22.00;86.80;;;;;;10422735;28;20579;-79
2022/09/12 15:50:02;;;;;;;2.80;2.70;;;21.90;83.20;;;;;;10391644;28;20312;-79
2022/09/12 15:55:12;;;;;;;4.07;3.87;;;21.90;84.30;;;;;;10419546;28;20224;-79
2022/09/12 16:00:20;;;;;;;3.50;3.30;;;21.90;86.30;;;;;;10388990;28;20708;-79
2022/09/12 16:05:25;;;;;;;4.37;4.17;;;22.00;82.60;;;;;;10413221;28;20214;-80
2022/09/12 16:10:33;;;;;;;4.17;3.97;;;22.20;82.80;;;;;;10389130;28;20237;-79
2022/09/12 16:15:38;;;;;;;4.43;4.23;;;22.20;83.20;;;;;;10415061;28;20198;-78
2022/09/12 16:20:40;;;;;;;4.47;4.27;;;22.30;85.80;;;;;;10388999;28;20579;-78
2022/09/12 16:25:44;;;;;;;3.93;3.80;;;22.20;86.20;;;;;;10414284;28;20662;-79
2022/09/12 16:30:55;;;;;;;4.80;4.50;;;22.20;88.20;;;;;;10391074;28;20754;-79
2022/09/12 16:36:02;;;;;;;6.70;6.30;;;22.10;85.50;;;;;;10401072;28;20186;-78
2022/09/12 16:41:06;;;;;;;6.97;6.57;;;22.00;85.10;;;;;;10389953;28;20245;-78
2022/09/12 16:46:10;;;;;;;4.77;4.57;;;22.10;86.60;;;;;;10410495;28;20220;-78
2022/09/12 16:51:12;;;;;;;4.83;4.07;;;22.10;86.20;;;;;;10384324;28;20222;-79
2022/09/12 16:56:16;;;;;;;4.57;4.37;;;22.10;86.90;;;;;;10412126;28;20209;-78
2022/09/12 17:01:20;;;;;;;4.10;3.90;;;22.00;87.50;;;;;;10381062;28;20260;-78
2022/09/12 17:06:23;;;;;;;4.57;4.27;;;22.00;88.80;;;;;;10406418;28;20214;-78
2022/09/12 17:11:30;;;;;;;3.60;3.50;;;21.90;89.30;;;;;;10380718;28;20317;-79
2022/09/12 17:16:33;;;;;;;4.23;3.47;;;21.90;89.20;;;;;;10406786;28;20190;-78
2022/09/12 17:21:36;;;;;;;4.50;4.20;;;21.70;89.40;;;;;;10387960;28;20210;-79
2022/09/12 17:26:39;;;;;;;4.00;3.80;;;21.70;90.10;;;;;;10415838;28;20222;-79
2022/09/12 17:31:42;;;;;;;4.67;4.47;;;21.60;90.10;;;;;;10387436;28;20226;-79
2022/09/12 17:36:45;;;;;;;4.80;4.40;;;21.50;90.10;;;;;;10411345;28;20234;-78
2022/09/12 17:41:50;;;;;;;4.23;4.03;;;21.40;90.20;;;;;;10391113;28;20752;-78
2022/09/12 17:46:52;;;;;;;4.33;4.10;;;21.30;90.50;;;;;;10415186;28;20225;-79
2022/09/12 17:51:54;;;;;;;11.50;10.40;;;21.20;90.50;;;;;;10387825;28;20238;-78
2022/09/12 17:56:58;;;;;;;5.20;4.90;;;21.10;90.30;;;;;;10409759;28;20674;-79
2022/09/12 18:02:12;;;;;;;3.90;3.70;;;21.00;90.20;;;;;;10386326;28;20195;-79
2022/09/12 18:07:17;;;;;;;4.40;4.20;;;20.90;91.20;;;;;;10407296;28;20260;-79
2022/09/12 18:12:20;;;;;;;8.10;4.37;;;20.90;91.50;;;;;;10385090;28;20580;-78
2022/09/12 18:17:22;;;;;;;6.70;6.10;;;20.80;91.40;;;;;;10408785;28;20291;-79
2022/09/12 18:22:24;;;;;;;6.37;5.87;;;20.70;92.50;;;;;;10387561;28;20234;-79
2022/09/12 18:27:28;;;;;;;4.93;4.53;;;20.60;91.80;;;;;;10408632;28;20292;-78
2022/09/12 18:32:30;;;;;;;4.70;4.40;;;20.50;92.90;;;;;;10388445;28;20620;-78
2022/09/12 18:37:32;;;;;;;4.83;4.53;;;20.50;93.80;;;;;;10409470;28;20214;-78
2022/09/12 18:42:35;;;;;;;4.93;4.53;;;20.40;94.40;;;;;;10371444;28;20191;-78
2022/09/12 18:47:37;;;;;;;4.00;3.80;;;20.30;94.90;;;;;;10405084;28;20226;-78
2022/09/12 18:52:39;;;;;;;4.40;4.20;;;20.30;94.80;;;;;;10388422;28;20202;-78
2022/09/12 18:57:43;;;;;;;4.97;4.67;;;20.20;95.10;;;;;;10404364;28;20210;-79
2022/09/12 19:02:45;;;;;;;5.13;4.83;;;20.20;95.30;;;;;;10389258;28;20751;-79
2022/09/12 19:07:47;;;;;;;5.30;5.00;;;20.10;95.40;;;;;;10410355;28;20221;-78
2022/09/12 19:12:50;;;;;;;5.17;4.87;;;20.10;95.70;;;;;;10395712;28;20199;-79
2022/09/12 19:17:52;;;;;;;4.73;4.43;;;20.00;94.90;;;;;;10410151;28;20592;-79
2022/09/12 19:22:54;;;;;;;5.90;5.53;;;19.90;93.50;;;;;;10396538;28;20745;-79
2022/09/12 19:27:57;;;;;;;5.90;5.50;;;19.90;93.60;;;;;;10408873;28;20248;-79
2022/09/12 19:32:59;;;;;;;4.70;4.50;;;19.90;92.60;;;;;;10397122;28;20229;-79
2022/09/12 19:38:01;;;;;;;5.33;4.90;;;19.80;93.10;;;;;;10408774;28;20690;-79
2022/09/12 19:43:05;;;;;;;4.87;4.57;;;19.80;92.60;;;;;;10398502;28;20262;-79
2022/09/12 19:48:07;;;;;;;5.00;4.70;;;19.70;93.00;;;;;;10411502;28;20296;-80
2022/09/12 19:53:09;;;;;;;4.37;4.17;;;19.70;92.90;;;;;;10403911;28;20190;-79
2022/09/12 19:58:13;;;;;;;4.37;4.17;;;19.70;92.80;;;;;;10405063;28;20584;-79
2022/09/12 20:03:15;;;;;;;4.10;3.90;;;19.60;93.10;;;;;;10397437;28;20226;-79
2022/09/12 20:08:17;;;;;;;4.57;4.17;;;19.40;93.70;;;;;;10405988;28;20317;-79
2022/09/12 20:13:20;;;;;;;4.50;4.10;;;19.40;93.80;;;;;;10398752;28;20281;-79
2022/09/12 20:18:22;;;;;;;4.50;4.20;;;19.40;93.70;;;;;;10402944;28;20256;-79
2022/09/12 20:23:24;;;;;;;4.10;3.80;;;19.20;94.10;;;;;;10400580;28;20202;-79
2022/09/12 20:28:28;;;;;;;4.03;3.73;;;19.10;94.60;;;;;;10404153;28;20249;-78
2022/09/12 20:33:31;;;;;;;4.13;3.87;;;19.10;94.50;;;;;;10400330;28;20218;-78
2022/09/12 20:38:33;;;;;;;3.97;3.77;;;19.00;94.80;;;;;;10404590;28;20214;-79
2022/09/12 20:43:38;;;;;;;4.90;4.40;;;19.00;94.80;;;;;;10396666;28;20284;-79
2022/09/12 20:48:40;;;;;;;5.83;4.03;;;18.90;94.80;;;;;;10400478;28;20620;-78
2022/09/12 20:53:42;;;;;;;3.87;3.70;;;18.90;95.30;;;;;;10398054;28;20193;-79
2022/09/12 20:58:46;;;;;;;3.90;3.70;;;18.90;95.20;;;;;;10399135;28;20669;-79
2022/09/12 21:03:48;;;;;;;4.20;4.00;;;18.90;95.40;;;;;;10399356;28;20564;-79
2022/09/12 21:08:50;;;;;;;3.70;3.40;;;18.90;95.30;;;;;;10399126;28;20242;-79
2022/09/12 21:13:54;;;;;;;3.63;3.43;;;18.90;95.10;;;;;;10400042;28;20218;-79
2022/09/12 21:18:58;;;;;;;3.77;3.57;;;18.80;95.00;;;;;;10396296;28;20214;-79
2022/09/12 21:24:02;;;;;;;3.73;3.53;;;18.80;95.70;;;;;;10398768;28;20206;-79
2022/09/12 21:29:06;;;;;;;3.60;3.40;;;18.70;95.70;;;;;;10396270;28;20303;-79
2022/09/12 21:34:08;;;;;;;4.20;3.90;;;18.70;95.90;;;;;;10399465;28;20203;-78
2022/09/12 21:39:10;;;;;;;3.60;3.30;;;18.70;95.40;;;;;;10394677;28;20214;-79
2022/09/12 21:44:13;;;;;;;3.90;3.70;;;18.70;95.80;;;;;;10395871;28;20199;-78
2022/09/12 21:49:15;;;;;;;4.43;3.87;;;18.60;96.20;;;;;;10391779;28;20217;-78
2022/09/12 21:54:17;;;;;;;4.70;4.40;;;18.60;95.90;;;;;;10396877;28;20205;-78
2022/09/12 21:59:21;;;;;;;4.37;4.03;;;18.60;96.20;;;;;;10398403;28;20240;-80
2022/09/12 22:04:24;;;;;;;4.07;3.57;;;18.60;96.50;;;;;;10397900;28;20203;-78
2022/09/12 22:09:26;;;;;;;3.90;3.70;;;18.60;96.70;;;;;;10387891;28;20234;-78
2022/09/12 22:14:29;;;;;;;4.03;3.70;;;18.50;96.70;;;;;;10396721;28;20226;-80
2022/09/12 22:19:31;;;;;;;4.97;4.57;;;18.60;96.20;;;;;;10392192;28;20217;-78
2022/09/12 22:24:33;;;;;;;4.17;3.97;;;18.60;96.60;;;;;;10396347;28;20206;-78
2022/09/12 22:29:37;;;;;;;4.10;3.80;;;18.60;97.10;;;;;;10386388;28;20217;-78
2022/09/12 22:34:40;;;;;;;4.63;4.23;;;18.60;96.50;;;;;;10401231;28;20195;-78
2022/09/12 22:39:42;;;;;;;4.80;4.40;;;18.60;96.20;;;;;;10391362;28;20266;-78
2022/09/12 22:44:45;;;;;;;3.80;3.60;;;18.60;96.40;;;;;;10397707;28;20269;-78
2022/09/12 22:49:47;;;;;;;3.83;3.63;;;18.60;96.80;;;;;;10384299;28;20222;-78
2022/09/12 22:54:49;;;;;;;4.43;4.23;;;18.50;96.90;;;;;;10397073;28;20246;-78
2022/09/12 22:59:52;;;;;;;4.20;4.00;;;18.50;96.70;;;;;;10383960;28;20268;-78
2022/09/12 23:04:54;;;;;;;4.20;4.00;;;18.50;97.60;;;;;;10398241;28;20283;-78
2022/09/12 23:09:56;;;;;;;4.63;3.57;;;18.50;97.00;;;;;;10381357;28;20221;-78
2022/09/12 23:15:00;;;;;;;3.97;3.77;;;18.50;96.50;;;;;;10399501;28;20714;-78
2022/09/12 23:20:02;;;;;;;4.60;3.87;;;18.40;96.50;;;;;;10383409;28;20214;-78
2022/09/12 23:25:05;;;;;;;4.90;4.53;;;18.40;97.20;;;;;;10399349;28;20230;-77
2022/09/12 23:30:10;;;;;;;4.73;4.07;;;18.40;97.60;;;;;;10382219;28;20212;-78
2022/09/12 23:35:12;;;;;;;4.40;4.00;;;18.30;97.20;;;;;;10398775;28;20191;-78
2022/09/12 23:40:14;;;;;;;3.70;3.40;;;18.30;96.90;;;;;;10381673;28;20233;-78
2022/09/12 23:45:17;;;;;;;4.07;3.77;;;18.30;96.80;;;;;;10399992;28;20219;-80
2022/09/12 23:50:19;;;;;;;3.67;3.47;;;18.30;96.60;;;;;;10384247;28;20259;-78
2022/09/12 23:55:22;;;;;;;3.80;3.60;;;18.20;96.80;;;;;;10409122;28;20558;-78
